LHPR

Details ICAO LHPR (QGY)
Name GYOR PER
Region Hungary
Timezone Europe/Budapest (UTC+1.0)
Plans Departing 31
Arriving 33
Stats Elevation 424 ft / 129 m (AMSL)
Location 47.626859° 17.812413°
Runways 2
Magnetic Variation 4.480° E
Sunrise 2017-12-12 06:29:16 UTC / 2017-12-12 07:29:16 Local
Sunset 2017-12-12 14:58:31 UTC / 2017-12-12 15:58:31 Local
Advertisement - Login to hide

Runways

ID Width Length Bearing (true) Bearing (mag) Surface Threshold Offset Overrun Length
12 98 ft / 30 m 4,748 ft / 1,447 m 119.53° 115.05° Asphalt 0 ft / 0 m 0 ft / 0 m
12L 140 ft / 43 m 3,724 ft / 1,135 m 119.30° 114.82° Dirt 0 ft / 0 m 0 ft / 0 m
30 98 ft / 30 m 4,748 ft / 1,447 m 299.54° 295.06° Asphalt 0 ft / 0 m 0 ft / 0 m
30R 140 ft / 43 m 3,724 ft / 1,135 m 299.31° 294.83° Dirt 0 ft / 0 m 0 ft / 0 m

Map

Weather


0- 5 10 15 20 25 30 35+ Temperature / ° C

Clouds and Precipitation
Forecast for 2017-12-12 18:00 UTC. Updated an hour ago

Ground ~20,000 ft ~40,000 ft Winds

METAR

LHPR 121415Z VRB01KT 8000 -RA SCT040 OVC083 07/07 Q1011 RMK BLU

TAF

Not found

Frequencies

Tower 125.50 MHz BUDAPEST INFO
Warning: Do not use this data for real-world aviation or navigation. No guarantee of current accuracy is given.